createdAt,value
2023-05-20T00:01:54.389Z,15.70
2023-05-20T00:04:23.802Z,15.71
2023-05-20T00:06:51.759Z,15.80
2023-05-20T00:09:19.786Z,15.78
2023-05-20T00:11:47.891Z,15.78
2023-05-20T00:14:15.843Z,15.48
2023-05-20T00:16:44.277Z,15.51
2023-05-20T00:19:12.263Z,15.65
2023-05-20T00:21:41.557Z,15.72
2023-05-20T00:24:09.490Z,15.80
2023-05-20T00:26:37.391Z,15.77
2023-05-20T00:29:05.404Z,15.67
2023-05-20T00:31:33.509Z,15.58
2023-05-20T00:34:01.584Z,15.61
2023-05-20T00:36:29.568Z,15.48
2023-05-20T00:38:58.872Z,15.60
2023-05-20T00:41:26.861Z,15.59
2023-05-20T00:43:55.643Z,15.62
2023-05-20T00:46:25.308Z,15.38
2023-05-20T00:48:53.766Z,15.45
2023-05-20T00:51:22.582Z,15.36
2023-05-20T00:53:51.523Z,15.35
2023-05-20T00:56:22.096Z,15.12
2023-05-20T00:58:50.451Z,15.23
2023-05-20T01:01:18.332Z,15.13
2023-05-20T01:03:46.379Z,15.03
2023-05-20T01:06:14.295Z,15.20
2023-05-20T01:08:42.482Z,15.12
2023-05-20T01:11:16.319Z,14.79
2023-05-20T01:13:48.793Z,14.79
2023-05-20T01:16:19.534Z,14.91
2023-05-20T01:18:49.391Z,14.51
2023-05-20T01:21:18.634Z,14.94
2023-05-20T01:26:29.793Z,15.11
2023-05-20T01:28:58.113Z,15.22
2023-05-20T01:31:30.881Z,14.90
2023-05-20T01:33:59.658Z,15.12
2023-05-20T01:36:30.015Z,14.98
2023-05-20T01:38:59.913Z,15.12
2023-05-20T01:41:30.188Z,15.01
2023-05-20T01:43:58.445Z,14.94
2023-05-20T01:46:26.481Z,14.55
2023-05-20T01:48:54.519Z,14.79
2023-05-20T01:51:22.406Z,14.79
2023-05-20T01:53:50.558Z,15.03
2023-05-20T01:56:19.991Z,14.87
2023-05-20T01:58:47.982Z,14.89
2023-05-20T02:01:16.148Z,14.94
2023-05-20T02:03:45.030Z,14.71
2023-05-20T02:06:13.052Z,14.71
2023-05-20T02:08:40.987Z,14.78
2023-05-20T02:11:08.988Z,14.79
2023-05-20T02:13:40.258Z,14.81
2023-05-20T02:16:08.604Z,14.77
2023-05-20T02:18:36.556Z,14.76
2023-05-20T02:21:05.109Z,14.79
2023-05-20T02:23:33.149Z,14.65
2023-05-20T02:26:01.199Z,14.68
2023-05-20T02:28:29.523Z,14.79
2023-05-20T02:30:58.788Z,14.91
2023-05-20T02:33:29.138Z,14.82
2023-05-20T02:35:57.742Z,14.86
2023-05-20T02:38:26.579Z,14.79
2023-05-20T02:40:54.721Z,14.66
2023-05-20T02:43:22.798Z,14.68
2023-05-20T02:45:50.774Z,14.74
2023-05-20T02:48:20.054Z,14.65
2023-05-20T02:50:49.147Z,14.74
2023-05-20T02:53:17.112Z,14.68
2023-05-20T02:55:47.344Z,14.70
2023-05-20T02:58:15.523Z,14.76
2023-05-20T03:00:43.511Z,14.96
2023-05-20T03:03:13.609Z,14.81
2023-05-20T03:05:46.086Z,14.88
2023-05-20T03:08:15.060Z,14.68
2023-05-20T03:10:43.084Z,14.87
2023-05-20T03:13:11.530Z,15.00
2023-05-20T03:15:39.886Z,14.87
2023-05-20T03:18:08.674Z,14.75
2023-05-20T03:20:38.330Z,14.98
2023-05-20T03:23:09.282Z,14.91
2023-05-20T03:25:38.709Z,14.86
2023-05-20T03:28:06.927Z,14.50
2023-05-20T03:30:37.844Z,14.64
2023-05-20T03:33:06.415Z,14.66
2023-05-20T03:35:34.965Z,14.72
2023-05-20T03:38:03.244Z,14.52
2023-05-20T03:40:33.424Z,14.72
2023-05-20T03:43:01.451Z,14.94
2023-05-20T03:45:30.588Z,14.85
2023-05-20T03:48:06.159Z,14.67
2023-05-20T03:50:35.981Z,14.60
2023-05-20T03:53:04.204Z,14.91
2023-05-20T03:55:40.049Z,14.84
2023-05-20T03:58:08.620Z,15.01
2023-05-20T04:00:37.051Z,14.91
2023-05-20T04:03:05.913Z,14.75
2023-05-20T04:05:34.185Z,14.92
2023-05-20T04:08:05.034Z,14.94
2023-05-20T04:10:34.071Z,15.03
2023-05-20T04:13:03.302Z,15.10
2023-05-20T04:15:31.331Z,14.70
2023-05-20T04:18:01.383Z,14.93
2023-05-20T04:20:29.651Z,14.95
2023-05-20T04:22:59.240Z,14.97
2023-05-20T04:25:27.500Z,14.82
2023-05-20T04:27:57.730Z,15.00
2023-05-20T04:30:27.518Z,14.84
2023-05-20T04:32:55.941Z,14.81
2023-05-20T04:35:26.201Z,14.99
2023-05-20T04:37:56.277Z,15.01
2023-05-20T04:40:24.534Z,15.00
2023-05-20T04:42:53.714Z,14.90
2023-05-20T04:45:23.330Z,14.99
2023-05-20T04:47:53.442Z,14.81
2023-05-20T04:50:22.102Z,14.76
2023-05-20T04:52:50.708Z,14.95
2023-05-20T04:55:19.780Z,14.94
2023-05-20T04:57:47.786Z,14.90
2023-05-20T05:00:16.297Z,14.86
2023-05-20T05:02:44.217Z,14.77
2023-05-20T05:05:13.673Z,14.80
2023-05-20T05:07:41.592Z,14.86
2023-05-20T05:10:10.237Z,14.67
2023-05-20T05:12:38.180Z,15.05
2023-05-20T05:15:07.146Z,15.00
2023-05-20T05:17:35.187Z,15.07
2023-05-20T05:20:03.462Z,15.04
2023-05-20T05:22:36.920Z,15.16
2023-05-20T05:25:05.037Z,15.22
2023-05-20T05:27:33.019Z,15.23
2023-05-20T05:30:01.886Z,15.05
2023-05-20T05:32:30.414Z,15.22
2023-05-20T05:34:58.539Z,15.07
2023-05-20T05:37:27.007Z,15.04
2023-05-20T05:39:56.580Z,15.08
2023-05-20T05:42:24.990Z,15.27
2023-05-20T05:44:53.620Z,15.16
2023-05-20T05:47:23.045Z,15.12
2023-05-20T05:49:51.862Z,15.34
2023-05-20T05:52:19.761Z,15.15
2023-05-20T05:54:47.699Z,15.36
2023-05-20T05:57:17.119Z,15.29
2023-05-20T05:59:45.232Z,15.27
2023-05-20T06:02:14.618Z,15.43
2023-05-20T06:04:43.116Z,15.48
2023-05-20T06:07:12.385Z,15.26
2023-05-20T06:09:40.577Z,15.27
2023-05-20T06:12:09.224Z,15.41
2023-05-20T06:14:38.852Z,15.45
2023-05-20T06:17:07.235Z,15.42
2023-05-20T06:19:35.692Z,15.42
2023-05-20T06:22:04.113Z,15.27
2023-05-20T06:24:34.630Z,15.30
2023-05-20T06:27:04.098Z,15.68
2023-05-20T06:29:32.132Z,15.72
2023-05-20T06:32:02.473Z,15.46
2023-05-20T06:34:30.836Z,15.59
2023-05-20T06:36:58.750Z,15.58
2023-05-20T06:39:26.848Z,15.72
2023-05-20T06:41:55.286Z,15.59
2023-05-20T06:44:30.551Z,15.74
2023-05-20T06:47:19.087Z,15.61
2023-05-20T06:49:49.224Z,15.77
2023-05-20T06:52:17.381Z,15.73
2023-05-20T06:54:47.899Z,15.56
2023-05-20T06:57:16.281Z,15.87
2023-05-20T06:59:44.259Z,15.89
2023-05-20T07:02:12.484Z,16.05
2023-05-20T07:04:42.400Z,16.07
2023-05-20T07:07:10.476Z,15.60
2023-05-20T07:09:39.177Z,16.11
2023-05-20T07:12:09.065Z,16.02
2023-05-20T07:14:37.524Z,16.15
2023-05-20T07:17:07.113Z,16.39
2023-05-20T07:19:35.348Z,16.00
2023-05-20T07:22:04.905Z,15.84
2023-05-20T07:24:42.402Z,16.28
2023-05-20T07:27:11.512Z,15.93
2023-05-20T07:29:39.905Z,16.14
2023-05-20T07:32:10.017Z,16.29
2023-05-20T07:34:38.968Z,16.28
2023-05-20T07:37:10.074Z,16.49
2023-05-20T07:39:38.758Z,16.80
2023-05-20T07:42:08.146Z,16.65
2023-05-20T07:44:41.158Z,16.87
2023-05-20T07:47:09.428Z,16.80
2023-05-20T07:49:37.601Z,16.96
2023-05-20T07:52:06.346Z,17.04
2023-05-20T07:54:36.610Z,17.08
2023-05-20T07:57:04.704Z,17.15
2023-05-20T07:59:33.023Z,17.00
2023-05-20T08:02:01.124Z,17.46
2023-05-20T08:04:30.166Z,17.21
2023-05-20T08:06:58.916Z,17.47
2023-05-20T08:09:43.894Z,17.61
2023-05-20T08:12:12.130Z,17.45
2023-05-20T08:14:41.785Z,17.45
2023-05-20T08:17:09.819Z,17.15
2023-05-20T08:19:38.426Z,17.39
2023-05-20T08:22:07.949Z,17.81
2023-05-20T08:24:36.384Z,17.13
2023-05-20T08:27:06.445Z,17.15
2023-05-20T08:29:34.580Z,17.67
2023-05-20T08:32:03.034Z,17.77
2023-05-20T08:34:30.990Z,17.73
2023-05-20T08:36:58.853Z,17.39
2023-05-20T08:39:27.414Z,16.67
2023-05-20T08:41:58.880Z,17.72
2023-05-20T08:44:29.403Z,18.05
2023-05-20T08:46:58.903Z,18.30
2023-05-20T08:49:27.294Z,18.33
2023-05-20T08:51:55.423Z,18.18
2023-05-20T08:54:26.680Z,17.59
2023-05-20T08:56:55.931Z,18.01
2023-05-20T08:59:24.058Z,18.01
2023-05-20T09:01:53.404Z,18.21
2023-05-20T09:04:21.498Z,17.76
2023-05-20T09:06:52.087Z,17.76
2023-05-20T09:09:20.137Z,17.89
2023-05-20T09:11:48.213Z,17.50
2023-05-20T09:14:16.180Z,17.57
2023-05-20T09:16:44.271Z,17.70
2023-05-20T09:19:13.696Z,17.66
2023-05-20T09:21:43.027Z,17.93
2023-05-20T09:24:11.048Z,17.85
2023-05-20T09:26:38.989Z,17.79
2023-05-20T09:29:08.363Z,17.89
2023-05-20T09:31:39.083Z,17.98
2023-05-20T09:34:08.062Z,17.46
2023-05-20T09:36:37.520Z,18.02
2023-05-20T09:39:06.820Z,18.06
2023-05-20T09:41:39.618Z,18.46
2023-05-20T09:44:07.788Z,18.50
2023-05-20T09:46:37.632Z,18.31
2023-05-20T09:49:07.916Z,18.34
2023-05-20T09:51:37.433Z,17.87
2023-05-20T09:54:08.464Z,18.02
2023-05-20T09:56:38.238Z,17.92
2023-05-20T09:59:06.867Z,18.62
2023-05-20T10:01:34.921Z,18.92
2023-05-20T10:04:05.206Z,18.70
2023-05-20T10:06:57.367Z,18.71
2023-05-20T10:09:38.835Z,18.61
2023-05-20T10:12:19.511Z,18.40
2023-05-20T10:15:01.139Z,18.30
2023-05-20T10:17:37.465Z,18.50
2023-05-20T10:20:11.830Z,18.49
2023-05-20T10:22:41.450Z,18.22
2023-05-20T10:25:26.666Z,18.70
2023-05-20T10:28:07.807Z,18.76
2023-05-20T10:30:36.672Z,18.61
2023-05-20T10:33:07.077Z,18.57
2023-05-20T10:35:35.355Z,18.48
2023-05-20T10:38:12.543Z,18.56
2023-05-20T10:40:41.245Z,19.15
2023-05-20T10:43:13.658Z,19.58
2023-05-20T10:45:51.851Z,19.98
2023-05-20T10:48:25.556Z,20.09
2023-05-20T10:50:58.000Z,20.85
2023-05-20T10:53:33.682Z,21.31
2023-05-20T10:56:02.718Z,20.64
2023-05-20T10:58:38.403Z,20.50
2023-05-20T11:01:06.575Z,20.29
2023-05-20T11:03:36.318Z,19.95
2023-05-20T11:06:12.625Z,19.63
2023-05-20T11:08:43.984Z,19.64
2023-05-20T11:11:12.399Z,19.49
2023-05-20T11:13:40.667Z,20.29
2023-05-20T11:16:08.800Z,20.45
2023-05-20T11:18:36.884Z,19.52
2023-05-20T11:21:05.098Z,20.13
2023-05-20T11:23:33.617Z,20.12
2023-05-20T11:26:03.560Z,21.00
2023-05-20T11:28:33.267Z,21.80
2023-05-20T11:31:01.511Z,21.91
2023-05-20T11:33:32.461Z,21.42
2023-05-20T11:36:00.463Z,21.13
2023-05-20T11:38:29.175Z,21.01
2023-05-20T11:40:57.560Z,20.64
2023-05-20T11:43:27.433Z,21.23
2023-05-20T11:45:57.631Z,22.36
2023-05-20T11:48:26.609Z,21.58
2023-05-20T11:50:56.836Z,21.76
2023-05-20T11:53:30.849Z,22.14
2023-05-20T11:56:00.176Z,22.98
2023-05-20T11:58:31.343Z,22.52
2023-05-20T12:01:09.626Z,21.90
2023-05-20T12:03:47.961Z,21.39
2023-05-20T12:06:16.132Z,21.72
2023-05-20T12:08:45.314Z,21.86
2023-05-20T12:11:13.380Z,22.37
2023-05-20T12:13:42.796Z,21.97
2023-05-20T12:16:11.274Z,22.44
2023-05-20T12:18:39.229Z,21.00
2023-05-20T12:21:07.300Z,21.71
2023-05-20T12:23:35.206Z,21.81
2023-05-20T12:26:03.259Z,21.98
2023-05-20T12:28:32.154Z,21.99
2023-05-20T12:31:01.597Z,22.16
2023-05-20T12:33:29.580Z,22.02
2023-05-20T12:35:57.860Z,22.05
2023-05-20T12:38:28.273Z,22.28
2023-05-20T12:40:58.764Z,22.11
2023-05-20T12:43:26.764Z,22.04
2023-05-20T12:45:56.030Z,21.96
2023-05-20T12:48:25.564Z,21.84
2023-05-20T12:50:53.750Z,21.89
2023-05-20T12:53:22.430Z,21.52
2023-05-20T12:55:50.355Z,21.85
2023-05-20T12:58:26.109Z,22.00
2023-05-20T13:01:02.357Z,22.57
2023-05-20T13:03:33.846Z,22.28
2023-05-20T13:06:01.820Z,22.35
2023-05-20T13:08:34.758Z,21.45
2023-05-20T13:11:02.623Z,21.41
2023-05-20T13:13:31.385Z,21.17
2023-05-20T13:15:59.456Z,21.44
2023-05-20T13:18:27.417Z,21.56
2023-05-20T13:20:57.463Z,21.88
2023-05-20T13:23:25.398Z,21.79
2023-05-20T13:25:53.354Z,21.17
2023-05-20T13:28:22.062Z,21.56
2023-05-20T13:30:49.958Z,21.34
2023-05-20T13:33:18.225Z,21.92
2023-05-20T13:35:46.159Z,22.10
2023-05-20T13:38:15.469Z,21.86
2023-05-20T13:40:43.525Z,22.13
2023-05-20T13:43:11.578Z,22.44
2023-05-20T13:45:39.827Z,22.60
2023-05-20T13:48:07.985Z,22.70
2023-05-20T13:50:36.138Z,22.15
2023-05-20T13:53:04.707Z,22.55
2023-05-20T13:55:33.955Z,22.58
2023-05-20T13:58:01.845Z,22.33
2023-05-20T14:00:29.777Z,22.50
2023-05-20T14:02:57.703Z,22.59
2023-05-20T14:05:25.664Z,22.67
2023-05-20T14:07:53.535Z,22.71
2023-05-20T14:10:21.556Z,22.61
2023-05-20T14:12:50.866Z,22.48
2023-05-20T14:15:18.756Z,21.94
2023-05-20T14:17:46.657Z,21.97
2023-05-20T14:20:14.818Z,21.79
2023-05-20T14:22:42.845Z,22.17
2023-05-20T14:25:10.955Z,22.06
2023-05-20T14:27:38.841Z,22.59
2023-05-20T14:30:09.782Z,22.47
2023-05-20T14:32:38.019Z,22.07
2023-05-20T14:35:06.836Z,22.28
2023-05-20T14:37:34.738Z,22.04
2023-05-20T14:40:03.392Z,22.46
2023-05-20T14:42:31.261Z,22.36
2023-05-20T14:44:59.213Z,22.19
2023-05-20T14:47:28.591Z,22.15
2023-05-20T14:49:57.924Z,22.22
2023-05-20T14:52:25.942Z,22.33
2023-05-20T14:54:53.962Z,22.08
2023-05-20T14:57:21.999Z,22.32
2023-05-20T14:59:52.468Z,22.25
2023-05-20T15:02:20.450Z,22.55
2023-05-20T15:04:50.412Z,22.45
2023-05-20T15:07:18.327Z,22.32
2023-05-20T15:09:46.314Z,22.67
2023-05-20T15:12:14.191Z,22.31
2023-05-20T15:14:42.050Z,22.39
2023-05-20T15:17:09.991Z,22.25
2023-05-20T15:19:41.264Z,22.34
2023-05-20T15:22:10.900Z,22.42
2023-05-20T15:24:38.804Z,22.46
2023-05-20T15:27:06.963Z,22.47
2023-05-20T15:29:35.057Z,22.01
2023-05-20T15:32:02.945Z,22.51
2023-05-20T15:34:30.840Z,22.54
2023-05-20T15:36:58.729Z,22.56
2023-05-20T15:39:28.352Z,22.93
2023-05-20T15:41:56.311Z,22.76
2023-05-20T15:44:24.156Z,22.79
2023-05-20T15:46:52.414Z,22.85
2023-05-20T15:49:20.503Z,22.58
2023-05-20T15:52:11.851Z,22.41
2023-05-20T15:54:38.042Z,22.41
2023-05-20T15:57:06.694Z,22.63
2023-05-20T15:59:34.790Z,22.60
2023-05-20T16:02:02.958Z,22.65
2023-05-20T16:04:31.198Z,22.92
2023-05-20T16:06:59.324Z,22.80
2023-05-20T16:09:27.361Z,22.67
2023-05-20T16:11:57.177Z,22.23
2023-05-20T16:14:25.212Z,22.26
2023-05-20T16:16:53.259Z,22.44
2023-05-20T16:19:21.411Z,22.68
2023-05-20T16:21:49.472Z,22.65
2023-05-20T16:24:17.498Z,22.32
2023-05-20T16:26:45.623Z,22.07
2023-05-20T16:29:16.501Z,22.11
2023-05-20T16:31:46.604Z,21.93
2023-05-20T16:34:16.397Z,22.02
2023-05-20T16:36:46.311Z,21.95
2023-05-20T16:39:14.864Z,22.01
2023-05-20T16:41:43.259Z,22.34
2023-05-20T16:44:11.537Z,22.10
2023-05-20T16:46:40.972Z,22.36
2023-05-20T16:49:08.967Z,22.15
2023-05-20T16:51:37.078Z,22.27
2023-05-20T16:54:05.217Z,21.67
2023-05-20T16:56:35.301Z,21.95
2023-05-20T16:59:03.578Z,21.98
2023-05-20T17:01:32.068Z,22.00
2023-05-20T17:04:01.489Z,22.12
2023-05-20T17:06:33.968Z,22.18
2023-05-20T17:09:03.026Z,22.30
2023-05-20T17:11:31.001Z,22.36
2023-05-20T17:13:58.881Z,22.08
2023-05-20T17:16:26.851Z,22.25
2023-05-20T17:18:54.825Z,22.15
2023-05-20T17:21:24.180Z,22.15
2023-05-20T17:23:52.137Z,22.08
2023-05-20T17:26:22.236Z,22.01
2023-05-20T17:28:50.107Z,22.14
2023-05-20T17:31:18.013Z,22.08
2023-05-20T17:33:46.279Z,22.28
2023-05-20T17:36:16.161Z,22.22
2023-05-20T17:38:45.501Z,22.30
2023-05-20T17:41:13.423Z,22.13
2023-05-20T17:43:41.318Z,22.11
2023-05-20T17:46:09.195Z,22.13
2023-05-20T17:48:37.099Z,22.08
2023-05-20T17:51:05.658Z,22.24
2023-05-20T17:53:33.552Z,22.00
2023-05-20T17:56:02.802Z,22.25
2023-05-20T17:58:31.494Z,22.15
2023-05-20T18:00:59.401Z,21.95
2023-05-20T18:03:27.805Z,21.94
2023-05-20T18:05:56.282Z,22.11
2023-05-20T18:08:25.319Z,22.08
2023-05-20T18:10:53.567Z,22.05
2023-05-20T18:13:22.829Z,21.89
2023-05-20T18:15:51.082Z,21.93
2023-05-20T18:18:19.113Z,21.97
2023-05-20T18:20:47.189Z,21.99
2023-05-20T18:23:15.357Z,21.91
2023-05-20T18:25:43.644Z,21.89
2023-05-20T18:28:13.169Z,21.97
2023-05-20T18:30:42.491Z,21.94
2023-05-20T18:33:10.845Z,21.86
2023-05-20T18:35:39.312Z,21.98
2023-05-20T18:38:07.266Z,21.93
2023-05-20T18:40:35.354Z,21.97
2023-05-20T18:43:03.306Z,21.88
2023-05-20T18:45:31.371Z,22.02
2023-05-20T18:48:00.764Z,22.03
2023-05-20T18:50:28.825Z,21.94
2023-05-20T18:52:56.689Z,21.84
2023-05-20T18:55:24.932Z,21.78
2023-05-20T18:57:52.998Z,21.95
2023-05-20T19:00:21.317Z,21.76
2023-05-20T19:02:49.244Z,21.82
2023-05-20T19:05:19.691Z,21.90
2023-05-20T19:07:47.673Z,21.75
2023-05-20T19:10:16.195Z,21.79
2023-05-20T19:12:44.675Z,21.67
2023-05-20T19:15:12.847Z,21.78
2023-05-20T19:17:40.812Z,21.66
2023-05-20T19:20:10.490Z,21.46
2023-05-20T19:22:39.785Z,21.77
2023-05-20T19:25:08.678Z,21.53
2023-05-20T19:27:36.709Z,21.43
2023-05-20T19:30:05.431Z,21.47
2023-05-20T19:32:33.367Z,21.59
2023-05-20T19:35:01.261Z,21.53
2023-05-20T19:37:29.109Z,21.50
2023-05-20T19:39:58.425Z,21.35
2023-05-20T19:42:26.364Z,21.32
2023-05-20T19:44:55.009Z,21.11
2023-05-20T19:47:23.038Z,21.53
2023-05-20T19:49:51.041Z,21.25
2023-05-20T19:52:19.949Z,21.27
2023-05-20T19:54:48.564Z,21.50
2023-05-20T19:57:17.857Z,21.36
2023-05-20T19:59:45.794Z,21.16
2023-05-20T20:02:14.832Z,21.21
2023-05-20T20:04:43.087Z,21.06
2023-05-20T20:07:11.045Z,21.11
2023-05-20T20:09:38.953Z,21.04
2023-05-20T20:12:07.923Z,21.17
2023-05-20T20:14:38.026Z,21.29
2023-05-20T20:17:06.226Z,21.00
2023-05-20T20:19:34.205Z,21.33
2023-05-20T20:22:02.149Z,21.26
2023-05-20T20:24:30.053Z,21.08
2023-05-20T20:26:58.364Z,20.86
2023-05-20T20:29:26.743Z,20.90
2023-05-20T20:31:56.582Z,20.95
2023-05-20T20:34:24.482Z,20.95
2023-05-20T20:36:53.156Z,20.98
2023-05-20T20:39:22.567Z,20.68
2023-05-20T20:41:51.431Z,20.76
2023-05-20T20:44:22.414Z,20.76
2023-05-20T20:46:51.506Z,20.54
2023-05-20T20:49:21.992Z,20.69
2023-05-20T20:51:51.362Z,20.70
2023-05-20T20:54:19.384Z,20.88
2023-05-20T20:56:47.345Z,20.52
2023-05-20T20:59:15.990Z,20.74
2023-05-20T21:01:45.132Z,20.68
2023-05-20T21:04:14.001Z,20.73
2023-05-20T21:06:45.970Z,20.18
2023-05-20T21:09:14.094Z,20.67
2023-05-20T21:11:42.966Z,20.84
2023-05-20T21:14:11.164Z,20.58
2023-05-20T21:16:39.233Z,20.54
2023-05-20T21:19:07.222Z,20.54
2023-05-20T21:21:35.218Z,20.52
2023-05-20T21:24:04.656Z,20.65
2023-05-20T21:26:32.536Z,20.18
2023-05-20T21:29:00.507Z,20.30
2023-05-20T21:31:28.580Z,20.42
2023-05-20T21:33:56.547Z,20.19
2023-05-20T21:36:24.438Z,20.44
2023-05-20T21:38:52.415Z,20.54
2023-05-20T21:41:23.576Z,20.21
2023-05-20T21:43:51.662Z,20.23
2023-05-20T21:46:19.607Z,20.02
2023-05-20T21:48:47.560Z,20.29
2023-05-20T21:51:15.590Z,20.20
2023-05-20T21:53:43.634Z,20.09
2023-05-20T21:56:11.533Z,19.97
2023-05-20T21:58:41.898Z,20.20
2023-05-20T22:01:10.550Z,20.12
2023-05-20T22:03:39.950Z,20.16
2023-05-20T22:06:08.301Z,20.20
2023-05-20T22:08:36.305Z,20.15
2023-05-20T22:11:07.398Z,20.16
2023-05-20T22:13:41.244Z,20.11
2023-05-20T22:16:11.279Z,20.05
2023-05-20T22:18:39.675Z,20.01
2023-05-20T22:21:07.656Z,19.76
2023-05-20T22:23:35.599Z,19.86
2023-05-20T22:26:04.921Z,19.82
2023-05-20T22:28:32.972Z,19.80
2023-05-20T22:31:01.399Z,19.92
2023-05-20T22:33:30.792Z,19.97
2023-05-20T22:35:59.522Z,20.20
2023-05-20T22:38:29.288Z,19.96
2023-05-20T22:40:57.301Z,19.97
2023-05-20T22:43:26.335Z,19.88
2023-05-20T22:45:54.296Z,19.95
2023-05-20T22:48:23.045Z,19.83
2023-05-20T22:50:54.026Z,19.98
2023-05-20T22:53:21.887Z,19.95
2023-05-20T22:55:49.937Z,19.95
2023-05-20T22:58:17.792Z,19.91
2023-05-20T23:00:46.011Z,20.03
2023-05-20T23:03:14.100Z,19.48
2023-05-20T23:05:42.002Z,19.65
2023-05-20T23:08:11.280Z,19.91
2023-05-20T23:10:39.465Z,19.79
2023-05-20T23:13:07.346Z,19.37
2023-05-20T23:15:35.361Z,19.63
2023-05-20T23:18:03.631Z,19.67
2023-05-20T23:20:31.524Z,19.51
2023-05-20T23:23:05.569Z,19.57
2023-05-20T23:25:40.149Z,19.52
2023-05-20T23:28:08.139Z,19.50
2023-05-20T23:30:36.622Z,19.74
2023-05-20T23:33:04.728Z,19.59
2023-05-20T23:35:32.771Z,19.60
2023-05-20T23:38:00.764Z,19.58
2023-05-20T23:40:28.696Z,19.53
2023-05-20T23:42:57.910Z,19.59
2023-05-20T23:45:25.978Z,19.52
2023-05-20T23:47:55.515Z,19.65
2023-05-20T23:50:23.717Z,19.53
2023-05-20T23:52:52.215Z,19.59
2023-05-20T23:55:20.159Z,19.63
2023-05-20T23:57:48.083Z,19.36
